Latest Weather Observations for Pearce

IDW60801

Issued at 3:53 am WST Wednesday 7 December 2022 (issued every 10 minutes, with the page automatically refreshed every 10 minutes)

About weather observations | Map of weather stations | Latest weather observations for WA | Other Formats
Station Details ID: 009053 Name: PEARCE RAAF Lat: -31.67 Lon: 116.02 Height: 40.0 m
Data from the previous 72 hours. | See also: Recent months at Pearce
Date/Time
WST
Temp
°C
App
Temp
°C
Dew
Point
°C
Rel
Hum
%
Delta-T
°C
Wind Press
QNH
hPa
Press
MSL
hPa
Rain since
9am
mm
Dir  Spd
km/h
Gust
km/h
Spd
kts
Gust
kts
07/03:30am 16.1 7.1 6.5 53 4.7 E 43 63 23 34 1012.3 1012.2 0.0
07/03:00am 16.5 9.1 6.9 53 4.8 E 35 56 19 30 1012.4 1012.3 0.0
07/02:34am 16.8 9.0 6.6 51 5.0 E 37 59 20 32 1012.2 1012.1 0.0
07/02:30am 16.8 9.0 6.6 51 5.0 E 37 54 20 29 1012.3 1012.2 0.0
07/02:01am 17.2 10.1 6.4 49 5.3 E 33 52 18 28 1012.4 1012.3 0.0
07/02:00am 17.2 9.7 6.4 49 5.3 E 35 52 19 28 1012.4 1012.3 0.0
07/01:30am 17.7 10.6 6.3 47 5.6 E 33 52 18 28 1012.7 1012.6 0.0
07/01:00am 18.4 11.3 5.3 42 6.4 E 32 50 17 27 1013.0 1012.9 0.0
07/12:30am 19.2 12.4 4.9 39 6.9 E 30 50 16 27 1013.2 1013.1 0.0
07/12:08am 19.9 13.0 4.8 37 7.3 ESE 30 50 16 27 1013.3 1013.2 0.0
07/12:00am 20.2 12.4 5.1 37 7.4 ESE 35 50 19 27 1013.3 1013.2 0.0
 
Date/Time
WST
Temp
°C
App
Temp
°C
Dew
Point
°C
Rel
Hum
%
Delta-T
°C
Wind Press
QNH
hPa
Press
MSL
hPa
Rain since
9am
mm
Dir  Spd
km/h
Gust
km/h
Spd
kts
Gust
kts
06/11:31pm 20.9 14.4 4.9 35 7.9 ESE 28 46 15 25 1013.3 1013.2 0.0
06/11:30pm 21.0 14.2 5.0 35 7.9 ESE 30 46 16 25 1013.3 1013.2 0.0
06/11:05pm 21.7 15.2 4.7 33 8.4 ESE 28 50 15 27 1013.2 1013.1 0.0
06/11:00pm 21.7 14.4 4.7 33 8.4 ESE 32 44 17 24 1013.3 1013.2 0.0
06/10:30pm 22.5 16.8 5.0 32 8.7 ESE 24 37 13 20 1013.2 1013.1 0.0
06/10:00pm 21.9 17.5 4.5 32 8.5 SE 17 30 9 16 1013.0 1012.9 0.0
06/09:30pm 17.6 17.9 10.9 65 3.6 CALM 0 6 0 3 1013.0 1012.9 0.0
06/09:00pm 18.9 19.4 11.5 62 4.1 CALM 0 0 0 0 1012.9 1012.8 0.0
06/08:30pm 19.5 19.9 11.3 59 4.5 CALM 0 0 0 0 1012.7 1012.6 0.0
06/08:00pm 19.9 19.5 11.1 57 4.8 SW 4 7 2 4 1012.4 1012.3 0.0
06/07:30pm 20.4 19.4 11.1 55 5.1 SW 7 9 4 5 1012.3 1012.2 0.0
06/07:00pm 21.7 20.0 11.1 51 5.9 SSW 11 17 6 9 1012.1 1012.0 0.0
06/06:30pm 22.7 19.1 10.5 46 6.7 SSW 20 28 11 15 1011.9 1011.8 0.0
06/06:00pm 24.3 19.5 10.2 41 7.8 SSW 26 32 14 17 1011.6 1011.5 0.0
06/05:30pm 24.7 20.2 10.2 40 8.0 SSW 24 32 13 17 1011.4 1011.3 0.0
06/05:00pm 26.0 21.2 10.2 37 8.8 SSW 26 32 14 17 1011.3 1011.2 0.0
06/04:30pm 26.3 21.2 10.5 37 8.9 SW 28 37 15 20 1011.4 1011.3 0.0
06/04:00pm 27.6 23.8 9.9 33 9.9 SSW 20 32 11 17 1011.3 1011.2 0.0
06/03:30pm 27.5 22.0 5.7 25 11.3 SE 24 35 13 19 1011.6 1011.5 0.0
06/03:00pm 27.8 24.1 8.1 29 10.7 SSE 17 30 9 16 1011.7 1011.6 0.0
06/02:30pm 27.9 23.3 8.2 29 10.7 SE 22 39 12 21 1011.9 1011.8 0.0
06/02:00pm 27.1 23.2 8.5 31 10.1 SSE 19 30 10 16 1012.2 1012.1 0.0
06/01:30pm 26.1 23.4 9.0 34 9.3 SSE 13 30 7 16 1012.5 1012.4 0.0
06/01:00pm 26.3 22.4 9.6 35 9.2 SE 20 32 11 17 1012.9 1012.8 0.0
06/12:30pm 25.8 22.5 10.8 39 8.4 SE 19 28 10 15 1013.3 1013.2 0.0
06/12:00pm 24.6 21.3 10.8 42 7.7 SE 19 32 10 17 1013.6 1013.5 0.0
06/11:30am 25.2 22.6 10.6 39 8.2 SE 15 28 8 15 1013.8 1013.7 0.0
06/11:00am 24.4 21.2 11.4 44 7.3 ESE 19 30 10 16 1014.0 1013.9 0.0
06/10:30am 22.4 18.5 10.9 48 6.4 SE 22 32 12 17 1014.1 1014.0 0.0
06/10:00am 22.0 18.6 11.4 51 5.9 SSE 20 32 11 17 1014.2 1014.1 0.0
06/09:30am 21.5 18.1 11.2 52 5.7 ESE 20 28 11 15 1014.4 1014.3 0.0
06/09:00am 20.5 17.0 10.9 54 5.3 SE 20 32 11 17 1014.6 1014.5 0.0
06/08:30am 20.0 16.7 11.5 58 4.7 SSE 20 28 11 15 1014.6 1014.5 0.0
06/08:00am 19.7 16.2 10.9 57 4.8 SE 20 32 11 17 1014.6 1014.5 0.0
06/07:30am 19.5 15.3 11.0 58 4.6 SE 24 33 13 18 1014.4 1014.3 0.0
06/07:00am 19.3 16.6 11.8 62 4.2 SE 17 24 9 13 1014.2 1014.1 0.0
06/06:30am 18.6 16.5 12.4 67 3.5 SE 15 22 8 12 1013.9 1013.8 0.0
06/06:00am 17.4 15.3 12.3 72 2.8 SSE 15 26 8 14 1013.7 1013.6 0.0
06/05:30am 16.8 14.5 11.9 73 2.7 SSE 15 20 8 11 1013.5 1013.4 0.0
06/05:00am 16.9 14.3 12.0 73 2.7 SSE 17 24 9 13 1013.1 1013.0 0.0
06/04:30am 16.9 15.4 11.8 72 2.8 SE 11 15 6 8 1012.7 1012.6 0.0
06/04:00am 17.2 15.3 11.7 70 3.0 SSE 13 24 7 13 1012.5 1012.4 0.0
06/03:30am 17.8 16.0 12.0 69 3.2 SSE 13 20 7 11 1012.3 1012.2 0.0
06/03:00am 18.2 15.6 12.0 67 3.4 SE 17 20 9 11 1012.2 1012.1 0.0
06/02:30am 18.8 16.3 12.3 66 3.6 SE 17 28 9 15 1012.1 1012.0 0.0
06/02:00am 18.8 16.7 12.3 66 3.6 SSE 15 22 8 12 1012.1 1012.0 0.0
06/01:30am 19.2 17.4 12.2 64 3.9 SE 13 26 7 14 1012.0 1011.9 0.0
06/01:00am 19.6 17.4 12.1 62 4.2 SE 15 26 8 14 1012.0 1011.9 0.0
06/12:30am 20.2 18.5 12.4 61 4.4 SSE 13 24 7 13 1012.0 1011.9 0.0
06/12:00am 20.4 17.9 12.4 60 4.5 ESE 17 24 9 13 1012.0 1011.9 0.0
 
Date/Time
WST
Temp
°C
App
Temp
°C
Dew
Point
°C
Rel
Hum
%
Delta-T
°C
Wind Press
QNH
hPa
Press
MSL
hPa
Rain since
9am
mm
Dir  Spd
km/h
Gust
km/h
Spd
kts
Gust
kts
05/11:30pm 20.6 18.9 12.3 59 4.7 ESE 13 24 7 13 1012.0 1011.9 0.0
05/11:00pm 21.2 18.2 12.6 58 4.9 ESE 20 28 11 15 1012.3 1012.2 0.0
05/10:30pm 21.4 19.3 12.5 57 5.0 ESE 15 26 8 14 1012.3 1012.2 0.0
05/10:00pm 21.9 20.3 12.7 56 5.2 SE 13 20 7 11 1012.3 1012.2 0.0
05/09:30pm 22.2 19.4 12.7 55 5.4 SE 19 30 10 16 1012.1 1012.0 0.0
05/09:00pm 21.7 20.4 13.6 60 4.7 SE 13 17 7 9 1011.8 1011.7 0.0
05/08:30pm 21.5 21.5 15.1 67 3.8 SE 9 11 5 6 1011.5 1011.4 0.0
05/08:00pm 21.4 22.8 15.5 69 3.5 WSW 2 6 1 3 1011.3 1011.2 0.0
05/07:30pm 21.6 21.5 15.0 66 3.9 WSW 9 9 5 5 1011.0 1010.8 0.0
05/07:00pm 22.8 21.9 14.9 61 4.7 WSW 13 15 7 8 1010.9 1010.7 0.0
05/06:30pm 23.8 21.9 14.2 55 5.7 SW 17 20 9 11 1010.7 1010.5 0.0
05/06:00pm 24.6 22.7 14.1 52 6.2 SW 17 22 9 12 1010.2 1010.0 0.0
05/05:30pm 24.1 21.5 13.9 53 6.0 SW 20 26 11 14 1010.0 1009.8 0.0
05/05:00pm 24.8 21.0 13.7 50 6.5 SW 26 35 14 19 1009.8 1009.6 0.0
05/04:30pm 26.7 22.8 14.5 47 7.3 WSW 28 35 15 19 1009.9 1009.7 0.0
05/04:00pm 26.2 22.1 13.7 46 7.4 SW 28 39 15 21 1009.9 1009.7 0.0
05/03:30pm 27.0 22.8 13.4 43 8.0 SW 28 35 15 19 1009.8 1009.6 0.0
05/03:00pm 27.6 22.6 13.5 41 8.4 SW 32 41 17 22 1010.0 1009.8 0.0
05/02:30pm 28.4 22.9 13.5 40 8.9 WSW 35 43 19 23 1009.8 1009.6 0.0
05/02:00pm 29.0 24.4 13.6 38 9.2 WSW 30 39 16 21 1010.1 1009.9 0.0
05/01:30pm 29.0 26.9 12.4 36 9.7 SSW 15 32 8 17 1010.2 1010.0 0.0
05/01:00pm 28.1 25.5 12.0 36 9.3 SSW 17 32 9 17 1010.6 1010.4 0.0
05/12:30pm 28.6 26.2 12.5 37 9.4 SW 17 26 9 14 1010.9 1010.7 0.0
05/12:00pm 28.0 25.5 12.4 38 9.1 SSW 17 26 9 14 1011.1 1011.0 0.0
05/11:30am 27.3 25.1 12.1 39 8.8 SSW 15 26 8 14 1011.2 1011.1 0.0
05/11:00am 26.5 24.6 11.8 40 8.4 SSW 13 22 7 12 1011.6 1011.5 0.0
05/10:30am 25.0 23.9 11.9 44 7.5 ESE 9 15 5 8 1011.9 1011.8 0.0
05/10:00am 25.3 23.9 12.2 44 7.5 SE 11 22 6 12 1012.0 1011.9 0.0
05/09:30am 24.9 22.0 12.2 45 7.3 SE 19 24 10 13 1012.3 1012.2 0.0
05/09:00am 23.5 21.0 12.2 49 6.4 ESE 17 26 9 14 1012.7 1012.6 0.0
05/08:30am 22.3 19.6 11.7 51 5.9 ESE 17 24 9 13 1013.1 1013.0 0.0
05/08:00am 21.7 18.7 12.0 54 5.5 ESE 19 28 10 15 1013.3 1013.2 0.0
05/07:30am 20.9 17.7 11.8 56 5.1 ESE 20 28 11 15 1013.3 1013.2 0.0
05/07:00am 20.0 16.4 12.0 60 4.5 ESE 22 33 12 18 1013.2 1013.1 0.0
05/06:30am 18.6 15.9 11.7 64 3.8 SE 17 24 9 13 1012.9 1012.8 0.0
05/06:00am 17.8 15.9 11.8 68 3.3 SE 13 17 7 9 1012.9 1012.8 0.0
05/05:30am 16.8 14.8 11.5 71 2.9 SE 13 24 7 13 1012.6 1012.5 0.0
05/05:00am 16.6 14.5 11.3 71 2.9 SE 13 20 7 11 1012.7 1012.6 0.0
05/04:30am 16.3 14.5 10.8 70 2.9 SE 11 19 6 10 1012.4 1012.3 0.0
05/04:00am 16.7 14.2 11.0 69 3.1 SE 15 22 8 12 1012.4 1012.3 0.0
05/03:30am 16.6 13.7 10.9 69 3.1 SE 17 22 9 12 1012.4 1012.3 0.0
05/03:00am 17.0 14.5 11.1 68 3.2 SE 15 20 8 11 1012.5 1012.4 0.0
05/02:30am 17.0 14.6 11.3 69 3.1 SSE 15 22 8 12 1012.7 1012.6 0.0
05/02:00am 17.4 14.6 11.2 67 3.4 SSE 17 30 9 16 1012.7 1012.6 0.0
05/01:30am 17.9 14.8 11.7 67 3.4 SSE 19 28 10 15 1012.8 1012.7 0.0
05/01:00am 18.3 16.0 11.8 66 3.6 SSE 15 30 8 16 1012.8 1012.7 0.0
05/12:30am 18.7 16.1 12.0 65 3.7 SSE 17 32 9 17 1012.8 1012.7 0.0
05/12:00am 19.0 16.0 12.0 64 3.9 SE 19 35 10 19 1013.0 1012.9 0.0
 
Date/Time
WST
Temp
°C
App
Temp
°C
Dew
Point
°C
Rel
Hum
%
Delta-T
°C
Wind Press
QNH
hPa
Press
MSL
hPa
Rain since
9am
mm
Dir  Spd
km/h
Gust
km/h
Spd
kts
Gust
kts
04/11:30pm 18.8 15.7 12.1 65 3.7 SE 20 33 11 18 1013.2 1013.1 0.0
04/11:00pm 19.0 16.7 11.8 63 4.0 SSE 15 20 8 11 1013.3 1013.2 0.0
04/10:30pm 19.7 16.7 12.0 61 4.3 ESE 19 33 10 18 1013.4 1013.3 0.0
04/10:00pm 20.3 17.2 11.5 57 4.9 SSE 19 28 10 15 1013.3 1013.2 0.0
04/09:30pm 21.1 17.9 11.4 54 5.4 SSE 19 28 10 15 1013.1 1013.0 0.0
04/09:00pm 21.8 18.9 10.9 50 6.0 SSE 17 28 9 15 1012.7 1012.6 0.0
04/08:30pm 23.1 19.3 11.2 47 6.6 SSE 22 35 12 19 1012.1 1012.0 0.0
04/08:00pm 24.3 19.6 10.6 42 7.6 SSE 26 39 14 21 1011.6 1011.5 0.0
04/07:30pm 25.4 21.4 10.4 39 8.4 SE 22 33 12 18 1011.0 1010.8 0.0
04/07:00pm 26.5 21.7 10.2 36 9.1 SE 26 37 14 20 1010.6 1010.4 0.0
04/06:30pm 27.9 23.4 10.1 33 10.0 SSE 24 37 13 20 1010.3 1010.1 0.0
04/06:00pm 29.1 24.5 9.8 30 10.9 SSE 24 32 13 17 1010.0 1009.8 0.0
04/05:30pm 30.1 26.4 9.6 28 11.5 SE 19 32 10 17 1009.8 1009.6 0.0
04/05:00pm 29.1 24.2 9.8 30 10.9 SE 26 35 14 19 1009.8 1009.6 0.0
04/04:30pm 30.6 26.9 10.0 28 11.7 SE 20 32 11 17 1009.8 1009.6 0.0
04/04:00pm 29.1 24.9 9.8 30 10.9 SE 22 30 12 16 1009.9 1009.7 0.0
04/03:30pm 29.4 25.3 10.0 30 11.0 SE 22 32 12 17 1009.9 1009.7 0.0
04/03:00pm 31.3 27.7 10.6 28 11.9 ESE 20 37 11 20 1010.0 1009.8 0.0
04/02:30pm 30.5 27.1 10.5 29 11.4 SE 19 30 10 16 1010.2 1010.0 0.0
04/02:00pm 29.5 26.1 11.1 32 10.6 SE 20 32 11 17 1010.6 1010.4 0.0
04/01:30pm 30.3 27.5 11.3 31 11.0 E 17 35 9 19 1010.9 1010.7 0.0
04/01:00pm 29.5 26.5 10.6 31 10.8 ENE 17 30 9 16 1011.3 1011.2 0.0
04/12:30pm 28.4 24.4 10.6 33 10.1 ESE 22 43 12 23 1011.7 1011.6 0.0
04/12:00pm 28.4 24.8 10.6 33 10.1 ESE 20 35 11 19 1012.1 1012.0 0.0
04/11:30am 28.2 23.9 10.9 34 9.9 SE 24 39 13 21 1012.4 1012.3 0.0
04/11:00am 26.4 21.5 10.1 36 9.1 ESE 26 33 14 18 1012.9 1012.8 0.0
04/10:30am 26.1 21.1 11.1 39 8.5 SE 28 37 15 20 1012.9 1012.8 0.0
04/10:00am 25.4 20.7 10.8 40 8.2 ESE 26 41 14 22 1013.2 1013.1 0.0
04/09:30am 24.5 19.2 11.1 43 7.5 E 30 48 16 26 1013.4 1013.3 0.0
04/09:24am 24.2 19.1 10.5 42 7.6 E 28 46 15 25 1013.4 1013.3 0.0
04/09:00am 23.8 18.5 11.2 45 7.1 ESE 30 43 16 23 1013.7 1013.6 0.0
04/08:30am 22.5 16.7 10.9 47 6.4 ESE 32 43 17 23 1013.8 1013.7 0.0
04/08:00am 22.2 17.4 11.6 51 5.9 ESE 28 39 15 21 1014.2 1014.1 0.0
04/07:30am 20.6 14.2 10.7 53 5.4 ESE 35 48 19 26 1014.2 1014.1 0.0
04/07:00am 19.8 15.9 10.8 56 4.9 ESE 22 37 12 20 1014.0 1013.9 0.0
04/06:30am 18.8 15.3 10.9 60 4.3 SE 20 33 11 18 1013.8 1013.7 0.0
04/06:00am 18.1 13.4 10.7 62 4.0 SE 26 41 14 22 1013.6 1013.5 0.0
04/05:30am 17.5 14.6 10.9 65 3.6 SE 17 28 9 15 1013.0 1012.9 0.0
04/05:00am 17.1 14.5 10.7 66 3.4 SE 15 22 8 12 1012.5 1012.4 0.0
04/04:30am 17.1 14.6 10.9 67 3.3 SE 15 28 8 15 1012.4 1012.3 0.0
04/04:00am 16.8 14.5 10.6 67 3.3 SE 13 20 7 11 1012.2 1012.1 0.0

Other formats

Comma delimited format used in spreadsheet applications
http://www.bom.gov.au/fwo/IDW60801/IDW60801.94612.axf

JavaScript Object Notation format (JSON) in row-major order
http://www.bom.gov.au/fwo/IDW60801/IDW60801.94612.json

Data quality

Most of these data are generated automatically and are frequently updated. Quality checks on data are not normally performed. It is possible for incorrect values to appear. Refer to information at About Latest Weather Observations and please check the disclaimer before using these data.